createdAt,value
2023-10-24T00:02:57.163Z,62.56
2023-10-24T00:06:04.603Z,62.44
2023-10-24T00:09:11.635Z,62.61
2023-10-24T00:12:17.875Z,62.23
2023-10-24T00:15:25.113Z,62.32
2023-10-24T00:18:33.723Z,62.33
2023-10-24T00:21:40.621Z,62.36
2023-10-24T00:24:46.848Z,62.54
2023-10-24T00:27:53.684Z,62.43
2023-10-24T00:31:01.096Z,62.39
2023-10-24T00:34:13.936Z,62.43
2023-10-24T00:37:20.168Z,62.41
2023-10-24T00:40:27.140Z,62.63
2023-10-24T00:43:38.556Z,62.46
2023-10-24T00:46:47.823Z,62.61
2023-10-24T00:49:56.877Z,62.56
2023-10-24T00:53:06.377Z,62.55
2023-10-24T00:56:15.152Z,62.67
2023-10-24T00:59:27.703Z,62.88
2023-10-24T01:02:35.183Z,62.76
2023-10-24T01:05:46.038Z,62.39
2023-10-24T01:08:52.506Z,62.43
2023-10-24T01:12:04.156Z,62.42
2023-10-24T01:15:14.028Z,62.19
2023-10-24T01:18:20.879Z,61.79
2023-10-24T01:21:29.452Z,61.89
2023-10-24T01:24:40.729Z,62.13
2023-10-24T01:27:55.331Z,62.14
2023-10-24T01:31:03.510Z,62.24
2023-10-24T01:34:09.643Z,62.20
2023-10-24T01:37:17.911Z,61.99
2023-10-24T01:40:30.670Z,61.95
2023-10-24T01:43:37.774Z,61.97
2023-10-24T01:46:44.493Z,61.94
2023-10-24T01:49:51.793Z,61.88
2023-10-24T01:52:59.987Z,61.99
2023-10-24T01:56:13.992Z,61.76
2023-10-24T01:59:21.318Z,61.74
2023-10-24T02:02:28.422Z,61.78
2023-10-24T02:05:34.548Z,61.45
2023-10-24T02:08:41.941Z,61.63
2023-10-24T02:11:50.922Z,61.49
2023-10-24T02:14:57.864Z,61.57
2023-10-24T02:18:04.288Z,61.65
2023-10-24T02:21:11.762Z,61.79
2023-10-24T02:24:19.875Z,61.52
2023-10-24T02:27:31.235Z,61.46
2023-10-24T02:30:41.366Z,61.33
2023-10-24T02:33:50.704Z,61.56
2023-10-24T02:37:00.053Z,61.47
2023-10-24T02:40:12.727Z,61.47
2023-10-24T02:43:21.444Z,61.13
2023-10-24T02:46:28.426Z,61.38
2023-10-24T02:49:35.782Z,61.49
2023-10-24T02:52:42.656Z,61.36
2023-10-24T02:55:48.950Z,61.28
2023-10-24T02:58:58.782Z,61.37
2023-10-24T03:02:08.287Z,61.49
2023-10-24T03:05:15.297Z,61.49
2023-10-24T03:08:21.491Z,61.88
2023-10-24T03:11:30.732Z,61.76
2023-10-24T03:14:40.076Z,61.74
2023-10-24T03:17:48.301Z,61.96
2023-10-24T03:20:54.475Z,61.49
2023-10-24T03:24:07.051Z,61.59
2023-10-24T03:27:14.269Z,61.59
2023-10-24T03:30:24.132Z,61.39
2023-10-24T03:33:30.180Z,61.45
2023-10-24T03:36:37.235Z,61.39
2023-10-24T03:39:43.331Z,61.02
2023-10-24T03:42:50.555Z,60.95
2023-10-24T03:45:59.590Z,61.07
2023-10-24T03:49:07.493Z,60.90
2023-10-24T03:52:14.114Z,60.99
2023-10-24T03:55:23.563Z,60.92
2023-10-24T03:58:30.870Z,61.22
2023-10-24T04:01:40.461Z,61.45
2023-10-24T04:04:46.544Z,61.33
2023-10-24T04:07:53.705Z,61.07
2023-10-24T04:10:59.847Z,61.05
2023-10-24T04:14:08.389Z,61.26
2023-10-24T04:17:21.976Z,61.41
2023-10-24T04:20:28.860Z,61.44
2023-10-24T04:23:35.007Z,61.60
2023-10-24T04:26:41.899Z,61.64
2023-10-24T04:29:48.189Z,61.48
2023-10-24T04:32:58.360Z,61.34
2023-10-24T04:36:06.733Z,61.28
2023-10-24T04:39:17.771Z,61.50
2023-10-24T04:42:23.864Z,61.57
2023-10-24T04:45:33.180Z,61.49
2023-10-24T04:48:41.755Z,61.54
2023-10-24T04:51:51.501Z,61.53
2023-10-24T04:54:58.066Z,61.65
2023-10-24T04:58:12.071Z,61.51
2023-10-24T05:01:18.293Z,61.75
2023-10-24T05:04:28.130Z,62.03
2023-10-24T05:07:34.180Z,62.27
2023-10-24T05:10:41.202Z,62.45
2023-10-24T05:13:47.246Z,62.57
2023-10-24T05:16:56.757Z,62.84
2023-10-24T05:20:08.982Z,62.77
2023-10-24T05:23:15.741Z,62.86
2023-10-24T05:26:21.641Z,62.61
2023-10-24T05:29:30.220Z,62.48
2023-10-24T05:32:46.675Z,62.44
2023-10-24T05:35:56.487Z,62.29
2023-10-24T05:39:05.490Z,62.48
2023-10-24T05:42:14.048Z,62.19
2023-10-24T05:45:23.772Z,62.09
2023-10-24T05:48:34.086Z,62.04
2023-10-24T05:51:42.814Z,61.87
2023-10-24T05:54:49.641Z,61.86
2023-10-24T05:57:55.602Z,61.78
2023-10-24T06:01:06.878Z,61.68
2023-10-24T06:04:13.026Z,61.36
2023-10-24T06:07:22.473Z,61.56
2023-10-24T06:10:31.302Z,61.40
2023-10-24T06:13:38.251Z,61.38
2023-10-24T06:16:44.368Z,61.35
2023-10-24T06:19:55.842Z,61.51
2023-10-24T06:23:07.533Z,61.46
2023-10-24T06:26:18.344Z,61.37
2023-10-24T06:29:26.322Z,61.25
2023-10-24T06:32:33.434Z,61.22
2023-10-24T06:35:39.441Z,61.06
2023-10-24T06:38:50.117Z,60.79
2023-10-24T06:41:56.159Z,60.98
2023-10-24T06:45:09.439Z,60.75
2023-10-24T06:48:15.927Z,60.47
2023-10-24T06:51:23.121Z,60.39
2023-10-24T06:54:32.062Z,60.14
2023-10-24T06:57:40.325Z,59.79
2023-10-24T07:00:48.396Z,59.18
2023-10-24T07:03:56.198Z,59.05
2023-10-24T07:07:04.125Z,59.13
2023-10-24T07:10:17.637Z,58.91
2023-10-24T07:13:23.985Z,58.72
2023-10-24T07:16:36.489Z,58.60
2023-10-24T07:19:45.428Z,58.40
2023-10-24T07:22:52.785Z,58.25
2023-10-24T07:26:04.682Z,57.83
2023-10-24T07:29:11.862Z,58.11
2023-10-24T07:32:18.781Z,58.04
2023-10-24T07:35:29.587Z,58.05
2023-10-24T07:38:44.919Z,58.27
2023-10-24T07:41:54.880Z,58.07
2023-10-24T07:45:02.137Z,57.73
2023-10-24T07:48:14.175Z,57.65
2023-10-24T07:51:20.208Z,57.43
2023-10-24T07:54:27.068Z,57.34
2023-10-24T07:57:35.924Z,57.76
2023-10-24T08:00:45.508Z,57.13
2023-10-24T08:03:55.788Z,56.67
2023-10-24T08:07:04.621Z,56.73
2023-10-24T08:10:11.738Z,56.23
2023-10-24T08:13:22.507Z,55.88
2023-10-24T08:16:28.732Z,55.96
2023-10-24T08:19:35.750Z,55.63
2023-10-24T08:22:42.113Z,55.40
2023-10-24T08:25:49.486Z,55.30
2023-10-24T08:28:58.726Z,54.78
2023-10-24T08:32:15.525Z,54.28
2023-10-24T08:35:22.012Z,54.08
2023-10-24T08:38:29.169Z,54.11
2023-10-24T08:41:35.616Z,53.66
2023-10-24T08:44:45.626Z,53.66
2023-10-24T08:47:55.029Z,53.43
2023-10-24T08:51:03.681Z,53.13
2023-10-24T08:54:10.842Z,52.80
2023-10-24T08:57:20.485Z,53.12
2023-10-24T09:00:31.341Z,53.09
2023-10-24T09:03:41.271Z,53.18
2023-10-24T09:06:48.000Z,52.84
2023-10-24T09:09:55.260Z,52.29
2023-10-24T09:13:04.104Z,52.23
2023-10-24T09:16:17.571Z,51.67
2023-10-24T09:19:24.406Z,51.75
2023-10-24T09:22:35.733Z,51.37
2023-10-24T09:25:42.458Z,50.87
2023-10-24T09:29:00.932Z,50.14
2023-10-24T09:32:16.466Z,49.63
2023-10-24T09:35:23.977Z,49.15
2023-10-24T09:38:30.324Z,49.00
2023-10-24T09:41:42.266Z,49.38
2023-10-24T09:44:50.133Z,49.49
2023-10-24T09:48:03.468Z,49.23
2023-10-24T09:51:10.835Z,49.02
2023-10-24T09:54:19.657Z,48.48
2023-10-24T09:57:28.078Z,48.55
2023-10-24T10:00:36.027Z,47.49
2023-10-24T10:03:47.751Z,46.29
2023-10-24T10:07:02.095Z,45.86
2023-10-24T10:10:17.204Z,45.54
2023-10-24T10:13:34.486Z,45.84
2023-10-24T10:17:08.258Z,45.74
2023-10-24T10:20:47.488Z,45.40
2023-10-24T10:24:29.956Z,46.00
2023-10-24T10:28:00.043Z,45.82
2023-10-24T10:32:36.421Z,45.53
2023-10-24T10:35:04.310Z,45.71
2023-10-24T10:38:16.215Z,45.70
2023-10-24T10:41:39.672Z,45.59
2023-10-24T10:44:47.744Z,45.82
2023-10-24T10:47:56.005Z,45.85
2023-10-24T10:51:09.321Z,46.14
2023-10-24T10:54:36.571Z,46.25
2023-10-24T10:58:07.342Z,46.28
2023-10-24T11:01:33.241Z,46.24
2023-10-24T11:04:39.831Z,47.01
2023-10-24T11:07:57.103Z,45.88
2023-10-24T11:11:06.807Z,45.47
2023-10-24T11:14:24.384Z,45.85
2023-10-24T11:17:36.042Z,45.54
2023-10-24T11:20:44.043Z,45.66
2023-10-24T11:23:50.064Z,44.99
2023-10-24T11:27:06.202Z,44.51
2023-10-24T11:30:14.059Z,44.97
2023-10-24T11:33:23.133Z,43.16
2023-10-24T11:36:29.969Z,43.48
2023-10-24T11:42:51.777Z,42.66
2023-10-24T11:45:59.329Z,42.42
2023-10-24T11:49:12.200Z,42.30
2023-10-24T11:52:19.700Z,43.98
2023-10-24T11:55:27.232Z,41.55
2023-10-24T11:58:45.817Z,42.86
2023-10-24T12:01:52.045Z,40.86
2023-10-24T12:04:58.893Z,42.42
2023-10-24T12:08:07.296Z,40.57
2023-10-24T12:11:15.277Z,40.02
2023-10-24T12:14:23.846Z,40.38
2023-10-24T12:17:37.050Z,39.51
2023-10-24T12:20:43.141Z,39.96
2023-10-24T12:23:50.442Z,41.63
2023-10-24T12:26:56.535Z,40.68
2023-10-24T12:30:11.631Z,38.99
2023-10-24T12:33:18.257Z,39.44
2023-10-24T12:36:25.271Z,39.19
2023-10-24T12:39:34.127Z,39.75
2023-10-24T12:42:41.108Z,39.75
2023-10-24T12:45:51.156Z,38.63
2023-10-24T12:49:02.628Z,38.90
2023-10-24T12:52:11.418Z,39.12
2023-10-24T12:55:20.623Z,39.46
2023-10-24T12:58:30.824Z,39.86
2023-10-24T13:01:40.505Z,39.45
2023-10-24T13:04:47.390Z,39.97
2023-10-24T13:07:56.336Z,40.37
2023-10-24T13:11:03.406Z,40.50
2023-10-24T13:14:10.733Z,40.57
2023-10-24T13:17:19.742Z,40.91
2023-10-24T13:20:26.828Z,40.54
2023-10-24T13:23:33.093Z,41.32
2023-10-24T13:26:40.182Z,41.29
2023-10-24T13:29:47.206Z,41.25
2023-10-24T13:32:56.928Z,41.58
2023-10-24T13:39:21.677Z,42.15
2023-10-24T13:42:27.780Z,42.27
2023-10-24T13:45:34.905Z,42.19
2023-10-24T13:48:43.737Z,42.24
2023-10-24T13:51:55.008Z,42.12
2023-10-24T13:55:03.810Z,42.62
2023-10-24T13:58:11.140Z,42.59
2023-10-24T14:01:17.238Z,42.74
2023-10-24T14:04:27.298Z,42.91
2023-10-24T14:07:38.672Z,43.19
2023-10-24T14:10:46.112Z,43.56
2023-10-24T14:13:52.343Z,43.96
2023-10-24T14:16:59.906Z,44.53
2023-10-24T14:20:12.770Z,44.86
2023-10-24T14:23:23.603Z,45.46
2023-10-24T14:26:30.214Z,46.25
2023-10-24T14:29:37.539Z,46.55
2023-10-24T14:32:44.038Z,46.96
2023-10-24T14:35:55.751Z,47.45
2023-10-24T14:39:03.656Z,47.90
2023-10-24T14:42:11.042Z,48.23
2023-10-24T14:45:17.501Z,48.43
2023-10-24T14:48:24.775Z,48.89
2023-10-24T14:51:33.825Z,49.20
2023-10-24T14:54:41.457Z,49.73
2023-10-24T14:57:48.056Z,50.27
2023-10-24T15:00:55.335Z,50.51
2023-10-24T15:04:07.174Z,50.51
2023-10-24T15:07:17.141Z,50.69
2023-10-24T15:10:23.371Z,50.91
2023-10-24T15:13:32.511Z,50.93
2023-10-24T15:16:39.872Z,51.25
2023-10-24T15:19:48.419Z,51.41
2023-10-24T15:22:58.236Z,51.74
2023-10-24T15:26:05.912Z,52.06
2023-10-24T15:29:12.769Z,52.37
2023-10-24T15:32:31.013Z,52.32
2023-10-24T15:35:41.624Z,52.77
2023-10-24T15:38:54.042Z,53.36
2023-10-24T15:42:00.724Z,53.67
2023-10-24T15:45:10.547Z,53.83
2023-10-24T15:48:16.814Z,54.04
2023-10-24T15:51:25.414Z,54.24
2023-10-24T15:54:34.612Z,54.19
2023-10-24T15:57:41.999Z,54.55
2023-10-24T16:00:53.154Z,54.76
2023-10-24T16:04:00.870Z,55.17
2023-10-24T16:07:13.798Z,55.26
2023-10-24T16:10:24.255Z,55.66
2023-10-24T16:13:34.986Z,55.77
2023-10-24T16:16:42.607Z,55.96
2023-10-24T16:19:49.058Z,56.34
2023-10-24T16:22:56.768Z,56.46
2023-10-24T16:26:10.904Z,56.66
2023-10-24T16:29:18.305Z,56.77
2023-10-24T16:32:24.875Z,56.89
2023-10-24T16:35:32.271Z,57.11
2023-10-24T16:38:38.632Z,57.05
2023-10-24T16:41:48.648Z,57.23
2023-10-24T16:44:55.528Z,57.11
2023-10-24T16:48:08.298Z,57.29
2023-10-24T16:51:15.982Z,57.29
2023-10-24T16:54:23.005Z,57.37
2023-10-24T16:57:31.950Z,57.45
2023-10-24T17:00:40.523Z,57.68
2023-10-24T17:03:48.080Z,57.56
2023-10-24T17:06:55.107Z,57.78
2023-10-24T17:10:03.143Z,57.83
2023-10-24T17:13:13.177Z,57.82
2023-10-24T17:16:22.045Z,57.97
2023-10-24T17:19:29.204Z,58.13
2023-10-24T17:22:35.538Z,58.01
2023-10-24T17:25:43.738Z,58.33
2023-10-24T17:28:52.613Z,58.52
2023-10-24T17:31:59.769Z,58.59
2023-10-24T17:35:13.505Z,58.83
2023-10-24T17:38:25.706Z,58.77
2023-10-24T17:41:31.935Z,58.59
2023-10-24T17:44:43.707Z,59.05
2023-10-24T17:47:50.312Z,59.06
2023-10-24T17:50:58.199Z,59.18
2023-10-24T17:54:08.167Z,59.21
2023-10-24T17:57:15.371Z,58.98
2023-10-24T18:00:24.731Z,59.27
2023-10-24T18:03:34.558Z,59.16
2023-10-24T18:06:40.816Z,59.23
2023-10-24T18:09:55.030Z,59.56
2023-10-24T18:13:08.776Z,59.42
2023-10-24T18:16:18.927Z,59.61
2023-10-24T18:19:28.298Z,59.63
2023-10-24T18:22:37.126Z,59.61
2023-10-24T18:25:45.575Z,59.74
2023-10-24T18:28:52.820Z,59.84
2023-10-24T18:32:03.937Z,59.81
2023-10-24T18:35:13.147Z,60.00
2023-10-24T18:38:20.300Z,59.92
2023-10-24T18:41:27.544Z,59.90
2023-10-24T18:44:34.213Z,60.24
2023-10-24T18:47:44.075Z,59.95
2023-10-24T18:50:51.383Z,60.23
2023-10-24T18:53:58.719Z,60.25
2023-10-24T18:57:06.337Z,60.35
2023-10-24T19:00:16.012Z,60.64
2023-10-24T19:06:34.962Z,61.01
2023-10-24T19:09:41.698Z,61.15
2023-10-24T19:12:50.246Z,61.31
2023-10-24T19:16:00.181Z,61.32
2023-10-24T19:19:13.123Z,61.58
2023-10-24T19:22:21.147Z,61.62
2023-10-24T19:25:29.607Z,61.89
2023-10-24T19:28:37.221Z,61.69
2023-10-24T19:31:45.928Z,62.17
2023-10-24T19:34:56.015Z,62.24
2023-10-24T19:38:10.509Z,62.11
2023-10-24T19:41:17.870Z,62.30
2023-10-24T19:44:25.943Z,62.60
2023-10-24T19:47:43.400Z,62.74
2023-10-24T19:50:54.773Z,62.98
2023-10-24T19:54:07.436Z,62.90
2023-10-24T19:57:17.634Z,63.09
2023-10-24T20:00:26.125Z,63.15
2023-10-24T20:03:34.210Z,63.52
2023-10-24T20:06:46.007Z,63.45
2023-10-24T20:11:40.704Z,63.77
2023-10-24T20:13:21.812Z,63.93
2023-10-24T20:16:35.136Z,64.06
2023-10-24T20:19:42.521Z,64.25
2023-10-24T20:22:54.635Z,64.30
2023-10-24T20:26:02.916Z,64.28
2023-10-24T20:29:10.677Z,64.31
2023-10-24T20:32:16.909Z,64.47
2023-10-24T20:35:28.207Z,64.57
2023-10-24T20:38:38.000Z,64.50
2023-10-24T20:41:45.982Z,64.43
2023-10-24T20:44:54.367Z,64.29
2023-10-24T20:48:01.505Z,64.63
2023-10-24T20:51:09.558Z,64.85
2023-10-24T20:54:19.279Z,64.53
2023-10-24T20:57:25.693Z,64.58
2023-10-24T21:00:33.618Z,64.78
2023-10-24T21:03:40.072Z,64.82
2023-10-24T21:06:50.552Z,64.76
2023-10-24T21:09:59.642Z,64.88
2023-10-24T21:13:08.866Z,65.02
2023-10-24T21:16:15.342Z,65.22
2023-10-24T21:19:22.431Z,65.18
2023-10-24T21:22:28.907Z,65.17
2023-10-24T21:25:39.062Z,65.20
2023-10-24T21:28:45.218Z,65.87
2023-10-24T21:31:52.385Z,66.07
2023-10-24T21:34:58.955Z,65.88
2023-10-24T21:38:11.713Z,66.27
2023-10-24T21:41:22.118Z,66.62
2023-10-24T21:44:34.001Z,66.62
2023-10-24T21:47:49.793Z,66.71
2023-10-24T21:50:56.844Z,66.66
2023-10-24T21:54:05.965Z,67.01
2023-10-24T21:57:16.216Z,67.50
2023-10-24T22:00:24.791Z,67.38
2023-10-24T22:03:34.481Z,67.63
2023-10-24T22:06:41.161Z,67.45
2023-10-24T22:09:48.326Z,67.47
2023-10-24T22:12:57.497Z,67.36
2023-10-24T22:16:06.715Z,67.23
2023-10-24T22:19:15.019Z,67.63
2023-10-24T22:22:22.675Z,67.47
2023-10-24T22:25:28.819Z,67.52
2023-10-24T22:28:38.405Z,68.07
2023-10-24T22:31:44.530Z,67.77
2023-10-24T22:34:52.128Z,67.69
2023-10-24T22:37:58.341Z,67.81
2023-10-24T22:41:06.965Z,68.19
2023-10-24T22:44:17.368Z,67.87
2023-10-24T22:47:24.653Z,68.25
2023-10-24T22:50:30.864Z,68.27
2023-10-24T22:53:39.191Z,68.34
2023-10-24T22:56:45.368Z,68.12
2023-10-24T22:59:57.772Z,68.41
2023-10-24T23:03:06.570Z,68.33
2023-10-24T23:06:13.834Z,68.53
2023-10-24T23:09:21.729Z,68.24
2023-10-24T23:12:28.938Z,68.29
2023-10-24T23:15:38.224Z,68.19
2023-10-24T23:18:45.435Z,68.32
2023-10-24T23:21:51.782Z,68.79
2023-10-24T23:25:00.584Z,68.98
2023-10-24T23:28:08.565Z,69.09
2023-10-24T23:31:18.395Z,68.74
2023-10-24T23:34:24.692Z,68.81
2023-10-24T23:37:34.666Z,68.70
2023-10-24T23:40:41.891Z,68.82
2023-10-24T23:43:48.953Z,69.06
2023-10-24T23:46:58.751Z,68.96
2023-10-24T23:50:08.471Z,69.20
2023-10-24T23:53:14.821Z,69.04
2023-10-24T23:56:22.225Z,69.21
2023-10-24T23:59:29.942Z,68.81
